createdAt,value
2023-08-08T00:00:01.874Z,10.60
2023-08-08T00:01:01.902Z,10.48
2023-08-08T00:02:01.526Z,10.54
2023-08-08T00:03:01.308Z,10.48
2023-08-08T00:04:01.368Z,10.49
2023-08-08T00:05:01.251Z,10.41
2023-08-08T00:06:01.278Z,10.44
2023-08-08T00:07:01.327Z,10.37
2023-08-08T00:08:01.232Z,10.40
2023-08-08T00:09:01.231Z,10.42
2023-08-08T00:10:01.235Z,10.40
2023-08-08T00:11:01.238Z,10.41
2023-08-08T00:12:01.452Z,10.40
2023-08-08T00:13:01.235Z,10.35
2023-08-08T00:14:01.232Z,10.42
2023-08-08T00:15:01.177Z,10.46
2023-08-08T00:16:01.280Z,10.48
2023-08-08T00:17:01.211Z,10.30
2023-08-08T00:18:01.213Z,10.34
2023-08-08T00:19:01.149Z,10.33
2023-08-08T00:20:01.145Z,10.34
2023-08-08T00:21:01.127Z,10.26
2023-08-08T00:22:01.225Z,10.37
2023-08-08T00:23:01.196Z,10.28
2023-08-08T00:24:01.146Z,10.26
2023-08-08T00:25:01.074Z,10.28
2023-08-08T00:26:01.064Z,10.31
2023-08-08T00:27:01.088Z,10.20
2023-08-08T00:28:01.124Z,10.33
2023-08-08T00:29:01.921Z,10.20
2023-08-08T00:30:01.084Z,10.20
2023-08-08T00:31:02.122Z,10.19
2023-08-08T00:32:01.287Z,10.15
2023-08-08T00:33:01.105Z,10.15
2023-08-08T00:34:01.075Z,10.20
2023-08-08T00:35:01.071Z,10.19
2023-08-08T00:36:01.006Z,10.22
2023-08-08T00:37:01.047Z,10.10
2023-08-08T00:38:01.015Z,10.16
2023-08-08T00:39:01.053Z,10.15
2023-08-08T00:40:00.986Z,10.15
2023-08-08T00:41:00.968Z,10.07
2023-08-08T00:42:01.220Z,10.10
2023-08-08T00:43:00.941Z,10.04
2023-08-08T00:44:00.963Z,10.09
2023-08-08T00:45:00.928Z,10.10
2023-08-08T00:46:00.948Z,10.01
2023-08-08T00:47:00.985Z,10.02
2023-08-08T00:48:01.091Z,10.05
2023-08-08T00:49:01.006Z,10.01
2023-08-08T00:50:00.967Z,9.99
2023-08-08T00:51:00.921Z,10.01
2023-08-08T00:52:01.290Z,9.99
2023-08-08T00:53:00.987Z,9.94
2023-08-08T00:54:00.852Z,9.99
2023-08-08T00:55:00.928Z,10.01
2023-08-08T00:56:00.847Z,10.04
2023-08-08T00:57:01.069Z,10.07
2023-08-08T00:58:00.941Z,10.01
2023-08-08T00:59:00.889Z,10.10
2023-08-08T01:00:00.835Z,10.02
2023-08-08T01:01:00.846Z,10.04
2023-08-08T01:02:00.917Z,9.98
2023-08-08T01:03:00.829Z,10.01
2023-08-08T01:04:01.388Z,10.04
2023-08-08T01:05:00.777Z,10.10
2023-08-08T01:06:00.817Z,10.04
2023-08-08T01:07:00.830Z,10.05
2023-08-08T01:08:00.773Z,10.13
2023-08-08T01:09:00.801Z,10.09
2023-08-08T01:10:00.766Z,10.04
2023-08-08T01:11:00.728Z,10.13
2023-08-08T01:12:00.839Z,10.15
2023-08-08T01:13:00.709Z,10.22
2023-08-08T01:14:01.435Z,10.13
2023-08-08T01:15:00.699Z,10.16
2023-08-08T01:16:00.682Z,10.13
2023-08-08T01:17:00.760Z,10.16
2023-08-08T01:18:00.736Z,10.26
2023-08-08T01:19:00.675Z,10.31
2023-08-08T01:20:00.678Z,10.28
2023-08-08T01:21:00.677Z,10.19
2023-08-08T01:22:02.009Z,10.30
2023-08-08T01:23:00.674Z,10.30
2023-08-08T01:24:01.286Z,10.31
2023-08-08T01:25:01.385Z,10.34
2023-08-08T01:26:00.629Z,10.40
2023-08-08T01:27:00.617Z,10.31
2023-08-08T01:28:01.148Z,10.31
2023-08-08T01:29:00.582Z,10.31
2023-08-08T01:30:00.562Z,10.37
2023-08-08T01:31:00.576Z,10.31
2023-08-08T01:32:00.789Z,10.31
2023-08-08T01:33:00.592Z,10.38
2023-08-08T01:34:00.713Z,10.51
2023-08-08T01:35:00.681Z,10.44
2023-08-08T01:36:00.520Z,10.51
2023-08-08T01:37:00.532Z,10.54
2023-08-08T01:38:00.564Z,10.51
2023-08-08T01:39:00.605Z,10.53
2023-08-08T01:40:32.426Z,10.46
2023-08-08T01:41:01.384Z,10.46
2023-08-08T01:43:34.778Z,10.54
2023-08-08T01:44:02.192Z,10.57
2023-08-08T01:45:01.405Z,10.61
2023-08-08T01:46:01.564Z,10.56
2023-08-08T01:47:00.432Z,10.63
2023-08-08T01:48:00.576Z,10.60
2023-08-08T01:49:01.404Z,10.64
2023-08-08T01:50:00.415Z,10.59
2023-08-08T01:51:00.479Z,10.51
2023-08-08T01:52:00.733Z,10.68
2023-08-08T01:53:06.713Z,10.72
2023-08-08T01:54:01.401Z,10.57
2023-08-08T01:55:00.918Z,10.71
2023-08-08T01:56:01.050Z,10.69
2023-08-08T01:57:00.431Z,10.74
2023-08-08T01:58:00.931Z,10.68
2023-08-08T01:59:01.836Z,10.76
2023-08-08T02:00:01.032Z,10.75
2023-08-08T02:01:00.444Z,10.75
2023-08-08T02:02:00.726Z,10.69
2023-08-08T02:03:01.040Z,10.76
2023-08-08T02:04:01.890Z,10.75
2023-08-08T02:05:02.373Z,10.82
2023-08-08T02:06:00.261Z,10.81
2023-08-08T02:07:00.401Z,10.86
2023-08-08T02:08:00.367Z,10.92
2023-08-08T02:09:00.308Z,10.94
2023-08-08T02:10:00.498Z,10.99
2023-08-08T02:11:00.322Z,10.96
2023-08-08T02:12:01.753Z,11.07
2023-08-08T02:13:00.248Z,11.07
2023-08-08T02:14:00.275Z,11.15
2023-08-08T02:15:00.941Z,11.25
2023-08-08T02:16:01.709Z,11.18
2023-08-08T02:17:01.694Z,11.23
2023-08-08T02:18:00.300Z,11.18
2023-08-08T02:19:00.685Z,11.19
2023-08-08T02:20:01.789Z,11.23
2023-08-08T02:21:01.110Z,11.23
2023-08-08T02:22:01.481Z,11.25
2023-08-08T02:23:00.255Z,11.26
2023-08-08T02:24:00.209Z,11.23
2023-08-08T02:25:00.934Z,11.23
2023-08-08T02:26:00.221Z,11.07
2023-08-08T02:27:00.220Z,11.25
2023-08-08T02:28:00.289Z,11.27
2023-08-08T02:29:01.029Z,11.29
2023-08-08T02:30:00.941Z,11.33
2023-08-08T02:31:00.150Z,11.35
2023-08-08T02:32:01.112Z,11.35
2023-08-08T02:33:01.234Z,11.37
2023-08-08T02:34:01.801Z,11.36
2023-08-08T02:35:00.110Z,11.40
2023-08-08T02:36:00.906Z,11.29
2023-08-08T02:37:00.071Z,11.33
2023-08-08T02:38:00.084Z,11.30
2023-08-08T02:39:00.036Z,11.37
2023-08-08T02:40:00.078Z,11.30
2023-08-08T02:41:00.174Z,11.41
2023-08-08T02:42:00.330Z,11.41
2023-08-08T02:43:00.931Z,11.47
2023-08-08T02:44:01.963Z,11.37
2023-08-08T02:45:00.693Z,11.33
2023-08-08T02:46:00.095Z,11.37
2023-08-08T02:47:03.349Z,11.33
2023-08-08T02:48:00.180Z,11.32
2023-08-08T02:49:00.965Z,11.37
2023-08-08T02:50:00.893Z,11.32
2023-08-08T02:51:00.033Z,11.40
2023-08-08T02:52:00.276Z,11.43
2023-08-08T02:53:12.455Z,11.36
2023-08-08T02:54:00.994Z,11.40
2023-08-08T02:54:59.942Z,11.43
2023-08-08T02:56:00.041Z,11.40
2023-08-08T02:56:59.948Z,11.36
2023-08-08T02:57:59.924Z,11.50
2023-08-08T02:59:00.843Z,11.48
2023-08-08T02:59:59.988Z,11.45
2023-08-08T03:00:59.909Z,11.44
2023-08-08T03:02:00.877Z,11.50
2023-08-08T03:02:59.968Z,11.43
2023-08-08T03:04:00.623Z,11.43
2023-08-08T03:05:00.423Z,11.50
2023-08-08T03:05:59.840Z,11.45
2023-08-08T03:06:59.868Z,11.43
2023-08-08T03:07:59.846Z,11.52
2023-08-08T03:09:00.781Z,11.50
2023-08-08T03:09:59.809Z,11.52
2023-08-08T03:11:00.529Z,11.54
2023-08-08T03:12:00.649Z,11.55
2023-08-08T03:13:01.197Z,11.52
2023-08-08T03:14:01.727Z,11.62
2023-08-08T03:14:59.833Z,11.65
2023-08-08T03:15:59.836Z,11.60
2023-08-08T03:17:01.565Z,11.66
2023-08-08T03:17:59.977Z,11.69
2023-08-08T03:19:01.202Z,11.69
2023-08-08T03:19:59.896Z,11.78
2023-08-08T03:20:59.794Z,11.73
2023-08-08T03:22:00.877Z,11.78
2023-08-08T03:23:01.720Z,11.78
2023-08-08T03:23:59.714Z,11.78
2023-08-08T03:24:59.704Z,11.86
2023-08-08T03:25:59.734Z,11.87
2023-08-08T03:26:59.717Z,11.86
2023-08-08T03:27:59.800Z,11.87
2023-08-08T03:29:00.598Z,11.90
2023-08-08T03:29:59.693Z,11.86
2023-08-08T03:31:01.159Z,11.90
2023-08-08T03:32:00.970Z,11.97
2023-08-08T03:32:59.725Z,11.99
2023-08-08T03:33:59.682Z,11.97
2023-08-08T03:34:59.663Z,12.02
2023-08-08T03:36:02.279Z,12.03
2023-08-08T03:36:59.696Z,12.07
2023-08-08T03:37:59.580Z,12.07
2023-08-08T03:39:00.410Z,12.07
2023-08-08T03:40:01.332Z,12.00
2023-08-08T03:41:00.478Z,12.07
2023-08-08T03:41:59.776Z,12.10
2023-08-08T03:42:59.582Z,12.15
2023-08-08T03:43:59.511Z,12.15
2023-08-08T03:44:59.559Z,12.15
2023-08-08T03:45:59.579Z,12.24
2023-08-08T03:47:09.389Z,12.28
2023-08-08T04:03:45.786Z,12.37
2023-08-08T04:04:45.392Z,12.39
2023-08-08T04:05:46.600Z,12.37
2023-08-08T04:06:46.531Z,12.49
2023-08-08T04:07:48.379Z,12.50
2023-08-08T04:08:48.078Z,12.54
2023-08-08T04:09:48.060Z,12.53
2023-08-08T04:10:46.696Z,12.62
2023-08-08T04:11:46.636Z,12.72
2023-08-08T04:12:46.504Z,12.76
2023-08-08T04:13:46.575Z,12.83
2023-08-08T04:14:47.110Z,12.76
2023-08-08T04:15:46.508Z,12.75
2023-08-08T04:16:46.494Z,12.82
2023-08-08T04:17:46.533Z,12.82
2023-08-08T04:18:46.493Z,12.95
2023-08-08T04:19:46.588Z,12.86
2023-08-08T04:20:47.085Z,12.85
2023-08-08T04:21:47.141Z,12.91
2023-08-08T04:22:47.365Z,12.95
2023-08-08T04:23:46.509Z,12.87
2023-08-08T04:24:47.162Z,12.93
2023-08-08T04:25:48.134Z,12.97
2023-08-08T04:26:46.475Z,13.01
2023-08-08T04:27:46.957Z,13.00
2023-08-08T04:28:47.023Z,12.83
2023-08-08T04:29:46.418Z,12.93
2023-08-08T04:30:47.637Z,12.87
2023-08-08T04:31:47.100Z,12.90
2023-08-08T04:32:46.396Z,12.86
2023-08-08T04:33:46.445Z,12.86
2023-08-08T04:34:47.124Z,12.93
2023-08-08T04:35:47.370Z,12.87
2023-08-08T04:36:46.336Z,12.93
2023-08-08T04:37:48.100Z,12.90
2023-08-08T04:38:46.343Z,12.80
2023-08-08T04:39:46.416Z,12.79
2023-08-08T04:40:52.578Z,12.76
2023-08-08T04:41:47.347Z,12.83
2023-08-08T04:42:46.445Z,12.79
2023-08-08T04:43:47.120Z,12.73
2023-08-08T04:44:46.282Z,12.65
2023-08-08T04:45:46.304Z,12.78
2023-08-08T04:46:46.976Z,12.75
2023-08-08T04:47:46.487Z,12.73
2023-08-08T04:48:46.231Z,12.61
2023-08-08T04:49:46.237Z,12.61
2023-08-08T04:50:46.861Z,12.70
2023-08-08T04:51:46.836Z,12.67
2023-08-08T04:52:46.231Z,12.64
2023-08-08T04:53:46.856Z,12.62
2023-08-08T04:54:47.029Z,12.72
2023-08-08T04:55:46.320Z,12.62
2023-08-08T04:56:46.842Z,12.65
2023-08-08T04:57:46.176Z,12.65
2023-08-08T04:58:46.243Z,12.72
2023-08-08T04:59:47.062Z,12.72
2023-08-08T05:00:46.190Z,12.85
2023-08-08T05:01:46.170Z,12.75
2023-08-08T05:02:46.192Z,12.82
2023-08-08T05:03:47.181Z,12.75
2023-08-08T05:04:46.100Z,12.87
2023-08-08T05:05:48.046Z,12.85
2023-08-08T05:06:46.125Z,12.90
2023-08-08T05:07:46.225Z,12.93
2023-08-08T05:08:46.114Z,13.35
2023-08-08T05:09:47.842Z,13.56
2023-08-08T05:10:47.376Z,13.54
2023-08-08T05:11:46.094Z,14.04
2023-08-08T05:12:46.040Z,14.50
2023-08-08T05:13:46.048Z,14.72
2023-08-08T05:14:46.546Z,14.55
2023-08-08T05:15:46.098Z,14.78
2023-08-08T05:16:46.609Z,14.84
2023-08-08T05:17:46.866Z,15.19
2023-08-08T05:18:46.568Z,15.37
2023-08-08T05:21:43.682Z,15.86
2023-08-08T05:22:51.263Z,15.98
2023-08-08T05:23:48.165Z,16.09
2023-08-08T05:24:44.745Z,16.09
2023-08-08T05:25:46.119Z,16.01
2023-08-08T05:26:45.309Z,16.12
2023-08-08T05:27:44.685Z,16.05
2023-08-08T05:28:44.696Z,16.16
2023-08-08T05:29:44.653Z,16.46
2023-08-08T05:30:44.722Z,16.60
2023-08-08T05:31:44.845Z,16.81
2023-08-08T05:32:44.762Z,16.87
2023-08-08T05:33:45.351Z,17.04
2023-08-08T05:34:45.305Z,16.94
2023-08-08T05:35:44.714Z,16.74
2023-08-08T05:36:44.684Z,16.54
2023-08-08T05:37:44.723Z,16.33
2023-08-08T05:38:44.623Z,16.35
2023-08-08T05:40:17.286Z,16.43
2023-08-08T05:41:16.571Z,16.66
2023-08-08T05:41:44.584Z,17.01
2023-08-08T05:43:17.311Z,17.26
2023-08-08T05:43:44.598Z,17.27
2023-08-08T05:44:44.547Z,17.63
2023-08-08T05:45:45.506Z,17.72
2023-08-08T05:46:44.585Z,17.89
2023-08-08T05:47:45.509Z,17.98
2023-08-08T05:48:46.282Z,17.97
2023-08-08T05:49:44.621Z,18.41
2023-08-08T05:50:45.525Z,18.44
2023-08-08T05:51:44.852Z,18.65
2023-08-08T05:52:44.574Z,18.77
2023-08-08T05:53:44.684Z,18.58
2023-08-08T05:54:45.463Z,18.34
2023-08-08T05:55:44.556Z,17.74
2023-08-08T05:56:44.490Z,17.34
2023-08-08T05:57:44.484Z,16.96
2023-08-08T05:58:45.470Z,16.56
2023-08-08T05:59:44.459Z,16.50
2023-08-08T06:00:45.427Z,16.33
2023-08-08T06:01:44.535Z,17.02
2023-08-08T06:02:45.318Z,17.44
2023-08-08T06:03:44.518Z,17.83
2023-08-08T06:04:44.523Z,18.37
2023-08-08T06:05:44.423Z,18.55
2023-08-08T06:06:48.087Z,18.90
2023-08-08T06:07:45.381Z,19.24
2023-08-08T06:08:44.343Z,19.47
2023-08-08T06:09:44.349Z,19.54
2023-08-08T06:10:44.384Z,19.48
2023-08-08T06:11:44.342Z,19.59
2023-08-08T06:12:44.342Z,19.82
2023-08-08T06:13:44.392Z,20.00
2023-08-08T06:14:44.380Z,20.07
2023-08-08T06:15:44.365Z,19.88
2023-08-08T06:16:44.363Z,19.58
2023-08-08T06:17:44.932Z,19.70
2023-08-08T06:18:45.003Z,19.76
2023-08-08T06:19:44.375Z,19.91
2023-08-08T06:20:44.325Z,19.88
2023-08-08T06:21:44.364Z,20.06
2023-08-08T06:22:44.306Z,19.67
2023-08-08T06:23:44.253Z,19.48
2023-08-08T06:24:44.258Z,18.84
2023-08-08T06:25:44.487Z,18.34
2023-08-08T06:26:44.310Z,18.00
2023-08-08T06:27:44.245Z,17.72
2023-08-08T06:28:44.307Z,17.39
2023-08-08T06:29:44.249Z,17.24
2023-08-08T06:30:44.299Z,17.01
2023-08-08T06:31:44.951Z,16.81
2023-08-08T06:32:45.025Z,16.91
2023-08-08T06:33:44.212Z,16.87
2023-08-08T06:34:44.165Z,17.15
2023-08-08T06:35:44.153Z,17.26
2023-08-08T06:36:44.180Z,17.22
2023-08-08T06:37:44.188Z,17.09
2023-08-08T06:38:44.280Z,17.02
2023-08-08T06:39:44.227Z,16.86
2023-08-08T06:40:44.130Z,16.91
2023-08-08T06:41:44.218Z,16.94
2023-08-08T06:42:44.199Z,16.89
2023-08-08T06:43:44.178Z,16.87
2023-08-08T06:44:44.969Z,16.81
2023-08-08T06:45:44.152Z,16.87
2023-08-08T06:46:44.088Z,16.86
2023-08-08T06:47:44.072Z,16.79
2023-08-08T06:48:44.102Z,16.89
2023-08-08T06:49:44.104Z,16.89
2023-08-08T06:50:44.100Z,17.06
2023-08-08T06:51:44.030Z,17.05
2023-08-08T06:52:44.833Z,16.90
2023-08-08T06:53:44.809Z,16.97
2023-08-08T06:54:44.020Z,17.02
2023-08-08T06:55:44.008Z,17.09
2023-08-08T06:56:44.936Z,17.11
2023-08-08T06:57:44.032Z,16.97
2023-08-08T06:58:44.008Z,17.05
2023-08-08T06:59:44.046Z,17.09
2023-08-08T07:00:43.969Z,17.11
2023-08-08T07:01:43.984Z,17.04
2023-08-08T07:02:44.057Z,17.02
2023-08-08T07:03:44.034Z,16.89
2023-08-08T07:04:44.009Z,16.83
2023-08-08T07:05:44.942Z,16.79
2023-08-08T07:06:44.458Z,16.78
2023-08-08T07:07:44.491Z,16.81
2023-08-08T07:08:43.922Z,16.84
2023-08-08T07:09:43.893Z,16.83
2023-08-08T07:10:43.914Z,16.96
2023-08-08T07:11:43.933Z,16.94
2023-08-08T07:12:49.318Z,17.05
2023-08-08T07:13:43.984Z,16.89
2023-08-08T07:14:43.970Z,16.89
2023-08-08T07:15:44.478Z,16.75
2023-08-08T07:16:43.931Z,16.75
2023-08-08T07:17:43.852Z,16.84
2023-08-08T07:18:43.848Z,16.86
2023-08-08T07:19:43.851Z,16.79
2023-08-08T07:20:43.797Z,16.90
2023-08-08T07:21:45.048Z,16.66
2023-08-08T07:22:43.828Z,16.60
2023-08-08T07:23:43.868Z,16.57
2023-08-08T07:24:43.845Z,16.57
2023-08-08T07:25:43.825Z,16.61
2023-08-08T07:26:43.844Z,16.61
2023-08-08T07:27:43.807Z,16.68
2023-08-08T07:28:43.759Z,16.83
2023-08-08T07:29:44.087Z,16.71
2023-08-08T07:30:43.767Z,16.72
2023-08-08T07:31:43.840Z,16.78
2023-08-08T07:32:43.798Z,16.60
2023-08-08T07:33:43.762Z,16.68
2023-08-08T07:34:43.824Z,16.61
2023-08-08T07:35:43.719Z,16.83
2023-08-08T07:36:43.717Z,16.76
2023-08-08T07:37:43.709Z,16.74
2023-08-08T07:38:44.260Z,16.74
2023-08-08T07:39:43.698Z,16.86
2023-08-08T07:40:47.118Z,16.90
2023-08-08T07:41:43.725Z,16.89
2023-08-08T07:43:17.846Z,16.87
2023-08-08T07:43:44.328Z,16.78
2023-08-08T07:44:46.460Z,16.79
2023-08-08T07:45:44.449Z,16.78
2023-08-08T07:46:44.569Z,16.89
2023-08-08T07:47:43.639Z,16.83
2023-08-08T07:48:43.587Z,16.81
2023-08-08T07:49:44.654Z,16.90
2023-08-08T07:50:43.570Z,17.14
2023-08-08T07:51:44.393Z,17.49
2023-08-08T07:52:43.570Z,17.71
2023-08-08T07:53:45.693Z,17.79
2023-08-08T07:54:44.540Z,17.82
2023-08-08T07:55:43.531Z,17.78
2023-08-08T07:56:43.564Z,17.76
2023-08-08T07:57:43.569Z,17.86
2023-08-08T07:58:43.585Z,18.23
2023-08-08T07:59:43.490Z,18.40
2023-08-08T08:00:43.512Z,18.43
2023-08-08T08:01:44.437Z,18.53
2023-08-08T08:02:43.786Z,18.62
2023-08-08T08:03:43.573Z,18.31
2023-08-08T08:04:43.529Z,18.37
2023-08-08T08:05:43.783Z,18.29
2023-08-08T08:06:51.854Z,18.19
2023-08-08T08:07:44.521Z,18.03
2023-08-08T08:08:44.481Z,17.94
2023-08-08T08:09:44.036Z,18.05
2023-08-08T08:10:43.402Z,18.22
2023-08-08T08:11:43.449Z,18.20
2023-08-08T08:12:43.497Z,18.20
2023-08-08T08:13:44.037Z,18.18
2023-08-08T08:14:44.873Z,18.44
2023-08-08T08:15:43.435Z,18.50
2023-08-08T08:16:43.439Z,18.29
2023-08-08T08:17:43.397Z,18.11
2023-08-08T08:18:43.490Z,18.13
2023-08-08T08:19:43.423Z,18.01
2023-08-08T08:20:43.386Z,18.11
2023-08-08T08:21:43.339Z,18.10
2023-08-08T08:22:43.306Z,18.33
2023-08-08T08:23:43.349Z,18.62
2023-08-08T08:24:43.325Z,18.99
2023-08-08T08:25:43.327Z,19.30
2023-08-08T08:26:43.311Z,19.24
2023-08-08T08:27:43.297Z,18.92
2023-08-08T08:28:43.397Z,18.83
2023-08-08T08:29:43.303Z,18.77
2023-08-08T08:30:43.278Z,18.81
2023-08-08T08:31:43.279Z,19.30
2023-08-08T08:32:44.011Z,19.66
2023-08-08T08:33:43.254Z,20.25
2023-08-08T08:34:43.230Z,20.82
2023-08-08T08:35:43.819Z,21.20
2023-08-08T08:36:43.281Z,21.80
2023-08-08T08:37:43.321Z,22.23
2023-08-08T08:38:43.236Z,22.44
2023-08-08T08:39:43.189Z,22.45
2023-08-08T08:40:43.197Z,22.43
2023-08-08T08:41:43.225Z,22.32
2023-08-08T08:42:43.201Z,21.67
2023-08-08T08:43:43.170Z,21.43
2023-08-08T08:44:43.149Z,21.14
2023-08-08T08:45:43.145Z,21.03
2023-08-08T08:46:43.878Z,21.22
2023-08-08T08:47:43.259Z,21.02
2023-08-08T08:48:43.969Z,21.11
2023-08-08T08:49:43.793Z,21.05
2023-08-08T08:50:43.322Z,20.78
2023-08-08T08:51:43.198Z,20.52
2023-08-08T08:52:43.089Z,21.02
2023-08-08T08:53:43.085Z,20.60
2023-08-08T08:54:43.090Z,20.36
2023-08-08T08:55:43.097Z,20.29
2023-08-08T08:56:43.152Z,20.41
2023-08-08T08:57:43.119Z,20.16
2023-08-08T08:58:43.057Z,19.95
2023-08-08T08:59:43.044Z,19.81
2023-08-08T09:00:43.070Z,19.76
2023-08-08T09:01:43.140Z,19.51
2023-08-08T09:02:43.185Z,19.34
2023-08-08T09:03:43.230Z,19.44
2023-08-08T09:04:43.074Z,19.39
2023-08-08T09:05:43.032Z,19.33
2023-08-08T09:06:43.129Z,19.33
2023-08-08T09:07:43.051Z,19.40
2023-08-08T09:09:17.212Z,19.31
2023-08-08T09:09:42.959Z,19.33
2023-08-08T09:10:43.014Z,20.11
2023-08-08T09:11:42.948Z,20.70
2023-08-08T09:12:42.940Z,20.92
2023-08-08T09:13:42.914Z,21.14
2023-08-08T09:14:42.928Z,21.05
2023-08-08T09:15:43.669Z,21.02
2023-08-08T09:16:42.976Z,21.03
2023-08-08T09:17:48.515Z,20.77
2023-08-08T09:18:43.889Z,20.70
2023-08-08T09:19:42.882Z,20.70
2023-08-08T09:20:43.941Z,20.62
2023-08-08T09:21:44.403Z,20.52
2023-08-08T09:22:43.635Z,21.17
2023-08-08T09:23:44.058Z,21.62
2023-08-08T09:24:42.914Z,21.62
2023-08-08T09:25:42.902Z,21.89
2023-08-08T09:26:44.043Z,22.29
2023-08-08T09:27:43.545Z,22.26
2023-08-08T09:28:42.824Z,22.17
2023-08-08T09:29:42.827Z,22.33
2023-08-08T09:30:42.955Z,22.02
2023-08-08T09:31:42.809Z,22.59
2023-08-08T09:32:42.783Z,23.28
2023-08-08T09:33:44.573Z,23.50
2023-08-08T09:34:42.789Z,22.65
2023-08-08T09:35:44.255Z,22.81
2023-08-08T09:36:42.795Z,22.85
2023-08-08T09:37:43.548Z,23.00
2023-08-08T09:38:42.826Z,23.24
2023-08-08T09:39:42.759Z,23.25
2023-08-08T09:40:42.741Z,23.21
2023-08-08T09:41:42.766Z,22.75
2023-08-08T09:42:42.887Z,22.47
2023-08-08T09:43:42.723Z,22.51
2023-08-08T09:44:42.698Z,22.43
2023-08-08T09:45:42.697Z,21.69
2023-08-08T09:46:43.387Z,21.29
2023-08-08T09:47:42.724Z,20.90
2023-08-08T09:48:42.665Z,21.14
2023-08-08T09:49:42.683Z,21.40
2023-08-08T09:50:42.686Z,21.43
2023-08-08T09:51:42.691Z,21.37
2023-08-08T09:52:42.753Z,21.54
2023-08-08T09:53:42.684Z,22.20
2023-08-08T09:54:42.710Z,21.77
2023-08-08T09:55:42.644Z,21.40
2023-08-08T09:56:42.687Z,20.99
2023-08-08T09:57:43.546Z,20.80
2023-08-08T09:58:42.638Z,20.67
2023-08-08T09:59:42.588Z,20.44
2023-08-08T10:00:42.605Z,20.55
2023-08-08T10:01:42.705Z,20.63
2023-08-08T10:02:42.700Z,20.59
2023-08-08T10:03:42.629Z,21.20
2023-08-08T10:04:42.569Z,21.50
2023-08-08T10:05:42.591Z,21.21
2023-08-08T10:06:42.532Z,21.14
2023-08-08T10:07:42.562Z,20.97
2023-08-08T10:08:42.564Z,20.90
2023-08-08T10:09:42.549Z,20.81
2023-08-08T10:10:43.739Z,20.55
2023-08-08T10:11:43.536Z,20.24
2023-08-08T10:12:42.590Z,20.11
2023-08-08T10:13:42.530Z,20.11
2023-08-08T10:14:42.480Z,20.16
2023-08-08T10:15:42.553Z,20.14
2023-08-08T10:16:44.183Z,20.02
2023-08-08T10:17:42.590Z,19.91
2023-08-08T10:18:43.134Z,20.06
2023-08-08T10:19:43.140Z,20.18
2023-08-08T10:20:42.494Z,20.55
2023-08-08T10:21:42.551Z,20.70
2023-08-08T10:22:43.131Z,20.95
2023-08-08T10:23:42.610Z,20.90
2023-08-08T10:24:42.427Z,20.80
2023-08-08T10:25:42.479Z,21.12
2023-08-08T10:26:42.498Z,21.18
2023-08-08T10:27:43.381Z,21.22
2023-08-08T10:28:42.518Z,21.21
2023-08-08T10:29:42.420Z,21.57
2023-08-08T10:30:43.099Z,21.92
2023-08-08T10:31:42.438Z,22.57
2023-08-08T10:32:43.520Z,22.88
2023-08-08T10:33:43.034Z,22.81
2023-08-08T10:34:42.441Z,23.00
2023-08-08T10:35:42.375Z,23.36
2023-08-08T10:36:42.369Z,23.34
2023-08-08T10:37:42.394Z,22.91
2023-08-08T10:38:42.423Z,23.15
2023-08-08T10:39:42.405Z,23.10
2023-08-08T10:40:42.328Z,22.99
2023-08-08T10:41:42.948Z,22.78
2023-08-08T10:42:42.277Z,22.45
2023-08-08T10:43:42.338Z,22.45
2023-08-08T10:44:42.311Z,22.78
2023-08-08T10:45:43.094Z,22.96
2023-08-08T10:46:42.744Z,22.93
2023-08-08T10:47:42.271Z,22.78
2023-08-08T10:48:42.248Z,22.51
2023-08-08T10:49:42.300Z,22.73
2023-08-08T10:50:44.068Z,22.78
2023-08-08T10:51:42.251Z,22.45
2023-08-08T10:52:42.255Z,22.08
2023-08-08T10:53:43.045Z,21.76
2023-08-08T10:54:42.159Z,21.93
2023-08-08T10:55:42.289Z,21.96
2023-08-08T10:56:42.230Z,21.91
2023-08-08T10:57:42.219Z,21.72
2023-08-08T10:58:43.990Z,21.66
2023-08-08T10:59:42.223Z,21.57
2023-08-08T11:00:42.238Z,21.32
2023-08-08T11:01:42.149Z,21.39
2023-08-08T11:02:42.202Z,21.29
2023-08-08T11:03:44.866Z,21.14
2023-08-08T11:04:42.074Z,21.15
2023-08-08T11:05:42.997Z,21.05
2023-08-08T11:06:42.152Z,20.77
2023-08-08T11:07:42.162Z,20.70
2023-08-08T11:08:42.077Z,20.93
2023-08-08T11:09:42.166Z,20.87
2023-08-08T11:10:42.131Z,21.02
2023-08-08T11:11:42.954Z,21.03
2023-08-08T11:12:43.003Z,21.24
2023-08-08T11:13:42.038Z,21.07
2023-08-08T11:14:42.094Z,21.06
2023-08-08T11:15:42.094Z,20.85
2023-08-08T11:16:42.106Z,20.78
2023-08-08T11:17:43.145Z,21.00
2023-08-08T11:18:42.015Z,21.14
2023-08-08T11:19:42.049Z,21.30
2023-08-08T11:20:41.989Z,21.58
2023-08-08T11:21:41.989Z,21.77
2023-08-08T11:22:42.049Z,22.13
2023-08-08T11:23:42.041Z,22.14
2023-08-08T11:24:42.877Z,22.43
2023-08-08T11:25:41.993Z,22.53
2023-08-08T11:26:42.133Z,22.14
2023-08-08T11:27:43.063Z,22.14
2023-08-08T11:28:43.737Z,21.98
2023-08-08T11:29:42.039Z,21.89
2023-08-08T11:30:42.440Z,21.58
2023-08-08T11:31:41.972Z,21.61
2023-08-08T11:32:42.171Z,21.48
2023-08-08T11:33:41.973Z,21.42
2023-08-08T11:34:41.930Z,21.25
2023-08-08T11:35:41.851Z,20.99
2023-08-08T11:36:41.921Z,20.78
2023-08-08T11:37:42.617Z,20.63
2023-08-08T11:38:42.570Z,20.60
2023-08-08T11:39:44.885Z,20.24
2023-08-08T11:40:45.516Z,20.14
2023-08-08T11:41:44.626Z,20.13
2023-08-08T11:42:41.813Z,20.04
2023-08-08T11:43:47.517Z,20.07
2023-08-08T11:44:43.595Z,20.04
2023-08-08T11:45:41.931Z,19.99
2023-08-08T11:46:41.905Z,20.11
2023-08-08T11:47:42.493Z,20.21
2023-08-08T11:48:42.637Z,20.26
2023-08-08T11:49:41.791Z,20.25
2023-08-08T11:50:41.783Z,20.09
2023-08-08T11:51:41.751Z,19.92
2023-08-08T11:52:41.776Z,19.99
2023-08-08T11:53:41.864Z,19.86
2023-08-08T11:54:42.620Z,19.73
2023-08-08T11:55:41.744Z,19.77
2023-08-08T11:56:41.776Z,19.76
2023-08-08T11:57:41.696Z,19.58
2023-08-08T11:58:41.677Z,19.44
2023-08-08T11:59:41.653Z,19.39
2023-08-08T12:00:41.718Z,19.09
2023-08-08T12:01:41.664Z,18.99
2023-08-08T12:02:41.810Z,18.98
2023-08-08T12:03:41.720Z,18.89
2023-08-08T12:04:42.635Z,18.92
2023-08-08T12:05:41.659Z,18.89
2023-08-08T12:06:41.821Z,18.93
2023-08-08T12:07:42.385Z,18.74
2023-08-08T12:08:41.579Z,18.63
2023-08-08T12:09:41.665Z,18.60
2023-08-08T12:10:41.711Z,18.60
2023-08-08T12:11:41.586Z,18.56
2023-08-08T12:12:41.592Z,18.60
2023-08-08T12:13:41.627Z,18.53
2023-08-08T12:14:51.270Z,18.44
2023-08-08T12:15:42.570Z,18.50
2023-08-08T12:16:41.545Z,18.40
2023-08-08T12:17:52.484Z,18.43
2023-08-08T12:18:42.096Z,18.47
2023-08-08T12:19:41.524Z,18.45
2023-08-08T12:20:41.622Z,18.29
2023-08-08T12:21:41.522Z,18.29
2023-08-08T12:22:42.386Z,18.25
2023-08-08T12:23:41.555Z,18.29
2023-08-08T12:24:41.590Z,18.35
2023-08-08T12:25:42.137Z,18.25
2023-08-08T12:26:41.500Z,18.15
2023-08-08T12:27:41.448Z,18.07
2023-08-08T12:28:41.440Z,18.08
2023-08-08T12:29:41.493Z,17.90
2023-08-08T12:30:41.471Z,17.97
2023-08-08T12:31:41.476Z,17.94
2023-08-08T12:32:42.425Z,17.86
2023-08-08T12:33:41.559Z,17.72
2023-08-08T12:34:41.440Z,17.59
2023-08-08T12:35:41.439Z,17.51
2023-08-08T12:36:41.378Z,17.45
2023-08-08T12:37:41.394Z,17.46
2023-08-08T12:38:42.065Z,17.45
2023-08-08T12:39:42.108Z,17.54
2023-08-08T12:40:41.384Z,17.39
2023-08-08T12:41:41.384Z,17.45
2023-08-08T12:42:41.434Z,17.54
2023-08-08T12:43:41.341Z,17.63
2023-08-08T12:44:41.358Z,17.71
2023-08-08T12:45:41.308Z,17.65
2023-08-08T12:46:41.405Z,17.78
2023-08-08T12:47:41.399Z,17.87
2023-08-08T12:48:41.364Z,18.04
2023-08-08T12:49:41.412Z,18.23
2023-08-08T12:50:41.329Z,18.33
2023-08-08T12:51:41.304Z,18.28
2023-08-08T12:52:41.291Z,18.43
2023-08-08T12:53:41.286Z,18.20
2023-08-08T12:54:41.268Z,18.20
2023-08-08T12:55:41.384Z,18.20
2023-08-08T12:56:41.274Z,18.25
2023-08-08T12:57:41.232Z,18.20
2023-08-08T12:58:41.183Z,18.22
2023-08-08T12:59:42.113Z,18.26
2023-08-08T13:00:41.206Z,18.16
2023-08-08T13:01:41.231Z,18.07
2023-08-08T13:02:41.254Z,18.04
2023-08-08T13:03:43.264Z,18.07
2023-08-08T13:04:42.291Z,18.07
2023-08-08T13:05:41.154Z,18.04
2023-08-08T13:06:41.179Z,18.00
2023-08-08T13:07:41.320Z,17.86
2023-08-08T13:08:41.220Z,17.70
2023-08-08T13:09:41.167Z,17.74
2023-08-08T13:10:41.134Z,17.74